Time;durP1;ratioP1;P1;durP2;ratioP2;P2;SDS_P1;SDS_P2;PMS_P1;PMS_P2;Temp;Humidity;BMP_temperature;BMP_pressure;BME280_temperature;BME280_humidity;BME280_pressure;Samples;Min_cycle;Max_cycle;Signal;HPM_P1;HPM_P2
2022/10/02 00:01:52;;;;;;;7.47;3.25;;;;;;;15.55;100.00;63605.22;5043464;28;20236;-78
2022/10/02 00:04:26;;;;;;;21.02;5.55;;;;;;;15.55;100.00;63602.66;5048471;28;20226;-80
2022/10/02 00:07:00;;;;;;;22.40;6.25;;;;;;;15.59;100.00;63606.28;5047544;28;20220;-79
2022/10/02 00:09:32;;;;;;;12.57;3.75;;;;;;;15.54;100.00;63601.63;5045834;28;20197;-79
2022/10/02 00:12:00;;;;;;;5.05;4.15;;;;;;;15.62;100.00;63611.97;5047733;28;20213;-79
2022/10/02 00:14:33;;;;;;;6.43;3.38;;;;;;;15.59;100.00;63614.00;5046982;28;20205;-80
2022/10/02 00:17:01;;;;;;;4.78;3.38;;;;;;;15.52;100.00;63602.09;5047441;28;20263;-77
2022/10/02 00:19:30;;;;;;;6.20;3.78;;;;;;;15.62;100.00;63612.50;5036994;28;20237;-79
2022/10/02 00:22:19;;;;;;;5.30;4.10;;;;;;;15.53;100.00;63603.13;5029830;28;20218;-80
2022/10/02 00:24:54;;;;;;;5.43;5.03;;;;;;;15.61;100.00;63611.47;5046287;28;20194;-78
2022/10/02 00:27:46;;;;;;;5.32;4.97;;;;;;;15.57;100.00;63609.34;5043394;28;20241;-78
2022/10/02 00:30:16;;;;;;;6.55;5.53;;;;;;;15.58;100.00;63605.25;5029264;28;20428;-79
2022/10/02 00:32:55;;;;;;;6.30;5.88;;;;;;;15.47;100.00;63602.03;5029837;28;20210;-79
2022/10/02 00:35:38;;;;;;;6.15;5.65;;;;;;;15.39;100.00;63588.59;5035766;28;20284;-78
2022/10/02 00:38:15;;;;;;;5.72;5.28;;;;;;;15.35;100.00;63586.47;5045406;28;20213;-79
2022/10/02 00:41:03;;;;;;;4.95;4.53;;;;;;;15.32;100.00;63578.22;5045722;28;20224;-78
2022/10/02 00:43:40;;;;;;;4.60;4.20;;;;;;;15.17;100.00;63565.69;5047581;28;20210;-79
2022/10/02 00:46:25;;;;;;;3.53;3.33;;;;;;;15.13;100.00;63564.13;5039584;28;20228;-80
2022/10/02 00:49:05;;;;;;;6.90;3.67;;;;;;;15.03;100.00;63554.25;5027982;28;20217;-77
2022/10/02 00:51:51;;;;;;;4.75;2.55;;;;;;;14.97;100.00;63542.88;5043968;28;20202;-77
2022/10/02 00:54:30;;;;;;;3.20;2.92;;;;;;;14.96;100.00;63543.91;5031946;28;20244;-78
2022/10/02 00:57:09;;;;;;;4.35;2.97;;;;;;;14.92;100.00;63540.25;5035395;28;20237;-80
2022/10/02 00:59:54;;;;;;;2.60;2.40;;;;;;;14.91;100.00;63539.22;5046660;28;20202;-79
2022/10/02 01:02:44;;;;;;;2.47;1.90;;;;;;;14.77;100.00;63526.72;5045898;28;20256;-78
2022/10/02 01:05:12;;;;;;;1.67;1.58;;;;;;;14.77;100.00;63522.09;5043441;28;20202;-77
2022/10/02 01:07:43;;;;;;;1.33;1.33;;;;;;;14.82;100.00;63527.28;5032273;28;20284;-78
2022/10/02 01:10:12;;;;;;;1.00;1.00;;;;;;;14.75;100.00;63525.13;5025251;28;20432;-78
2022/10/02 01:12:39;;;;;;;2.25;1.20;;;;;;;14.71;100.00;63515.34;5031496;28;20252;-77
2022/10/02 01:15:11;;;;;;;0.98;0.98;;;;;;;14.66;100.00;63507.59;5044409;28;20221;-77
2022/10/02 01:17:38;;;;;;;0.85;0.85;;;;;;;14.69;100.00;63518.91;5043579;28;20222;-78
2022/10/02 01:20:11;;;;;;;0.70;0.70;;;;;;;14.68;100.00;63515.31;5048549;28;20194;-76
2022/10/02 01:22:46;;;;;;;0.80;0.80;;;;;;;14.57;100.00;63503.38;5044689;28;20218;-76
2022/10/02 01:25:15;;;;;;;1.00;1.00;;;;;;;14.55;100.00;63501.28;5044258;28;20483;-77
2022/10/02 01:27:42;;;;;;;0.80;0.80;;;;;;;14.56;100.00;63502.34;5043748;28;20284;-77
2022/10/02 01:30:11;;;;;;;0.70;0.70;;;;;;;14.62;100.00;63511.13;5044170;28;20428;-77
2022/10/02 01:32:44;;;;;;;2.75;0.90;;;;;;;14.62;100.00;63511.66;5039080;28;20309;-78
2022/10/02 01:35:11;;;;;;;0.88;0.88;;;;;;;14.60;100.00;63504.44;5026006;28;20190;-78
2022/10/02 01:37:41;;;;;;;1.27;1.17;;;;;;;14.57;100.00;63498.25;5028562;28;20222;-77
2022/10/02 01:40:10;;;;;;;0.90;0.90;;;;;;;14.58;100.00;63506.97;5027277;28;20257;-76
2022/10/02 01:42:40;;;;;;;0.85;0.85;;;;;;;14.54;100.00;63500.25;5042695;28;20268;-77
2022/10/02 01:45:08;;;;;;;2.78;0.75;;;;;;;14.60;100.00;63512.13;5044731;28;20204;-76
2022/10/02 01:47:42;;;;;;;1.20;1.20;;;;;;;14.56;100.00;63502.88;5042779;28;20234;-78
2022/10/02 01:50:16;;;;;;;1.65;1.40;;;;;;;14.56;100.00;63502.34;5042382;28;20204;-77
2022/10/02 01:52:49;;;;;;;2.22;1.13;;;;;;;14.59;100.00;63500.31;5050117;28;20209;-76
2022/10/02 01:55:31;;;;;;;0.88;0.88;;;;;;;14.56;100.00;63505.44;5044403;28;20190;-76
2022/10/02 01:58:16;;;;;;;0.47;0.47;;;;;;;14.56;100.00;63499.78;5042073;28;20217;-76
2022/10/02 02:00:52;;;;;;;0.68;0.68;;;;;;;14.54;100.00;63500.78;5044057;28;20236;-76
2022/10/02 02:03:24;;;;;;;2.67;0.95;;;;;;;14.47;100.00;63498.63;5024687;28;20268;-77
2022/10/02 02:05:56;;;;;;;1.55;0.98;;;;;;;14.41;100.00;63487.28;5024120;28;20187;-77
2022/10/02 02:08:29;;;;;;;1.63;1.17;;;;;;;14.42;100.00;63485.75;5039638;28;20241;-76
2022/10/02 02:11:07;;;;;;;0.88;0.88;;;;;;;14.38;100.00;63484.16;5048015;28;20380;-77
2022/10/02 02:13:43;;;;;;;0.70;0.70;;;;;;;14.29;100.00;63474.81;5042947;28;20225;-77
2022/10/02 02:16:19;;;;;;;0.88;0.85;;;;;;;14.31;100.00;63474.31;5043426;28;20573;-76
2022/10/02 02:18:50;;;;;;;0.70;0.70;;;;;;;14.32;100.00;63477.94;5042021;28;20252;-77
2022/10/02 02:21:23;;;;;;;1.17;1.17;;;;;;;14.43;100.00;63497.03;5043969;28;20436;-76
2022/10/02 02:23:52;;;;;;;1.90;0.85;;;;;;;14.42;100.00;63487.78;5045306;28;20236;-77
2022/10/02 02:26:20;;;;;;;1.40;1.30;;;;;;;14.40;100.00;63490.84;5043994;28;20383;-77
2022/10/02 02:28:53;;;;;;;2.08;1.08;;;;;;;14.38;100.00;63481.59;5043959;28;20237;-77
2022/10/02 02:31:24;;;;;;;3.10;1.48;;;;;;;14.45;100.00;63493.47;5043794;28;20182;-77
2022/10/02 02:33:56;;;;;;;1.95;1.85;;;;;;;14.40;100.00;63485.72;5045904;28;20210;-77
2022/10/02 02:36:27;;;;;;;2.20;1.58;;;;;;;14.49;100.00;63492.50;5043647;28;20197;-78
2022/10/02 02:38:59;;;;;;;1.67;1.67;;;;;;;14.45;100.00;63488.88;5043640;28;20251;-78
2022/10/02 02:41:29;;;;;;;1.90;1.80;;;;;;;14.55;100.00;63501.28;5045527;28;20217;-77
2022/10/02 02:44:02;;;;;;;2.72;1.92;;;;;;;14.52;100.00;63498.69;5044914;28;20222;-79
2022/10/02 02:46:33;;;;;;;2.60;2.30;;;;;;;14.51;100.00;63500.22;5044148;28;20209;-77
2022/10/02 02:49:07;;;;;;;2.33;2.05;;;;;;;14.58;100.00;63506.97;5043980;28;20535;-78
2022/10/02 02:51:37;;;;;;;2.88;2.38;;;;;;;14.57;100.00;63505.94;5050592;28;20201;-79
2022/10/02 02:54:11;;;;;;;3.13;2.20;;;;;;;14.61;100.00;63507.53;5045634;28;20495;-77
2022/10/02 02:56:40;;;;;;;2.33;2.22;;;;;;;14.58;100.00;63502.34;5049166;28;20447;-77
2022/10/02 02:59:11;;;;;;;2.05;1.95;;;;;;;14.61;100.00;63510.09;5049490;28;20200;-78
2022/10/02 03:01:38;;;;;;;2.13;1.55;;;;;;;14.61;100.00;63510.09;5051397;28;20206;-77
2022/10/02 03:04:04;;;;;;;2.45;1.83;;;;;;;14.64;100.00;63513.19;5048169;28;20321;-77
2022/10/02 03:06:36;;;;;;;2.30;2.20;;;;;;;14.61;100.00;63510.63;5050024;28;20198;-77
2022/10/02 03:09:05;;;;;;;1.98;1.90;;;;;;;14.70;100.00;63519.44;5046398;28;20285;-77
2022/10/02 03:11:51;;;;;;;2.00;1.95;;;;;;;14.68;100.00;63515.31;5045034;28;20208;-77
2022/10/02 03:14:41;;;;;;;2.90;2.80;;;;;;;14.70;100.00;63519.44;5049267;28;20186;-78
2022/10/02 03:17:19;;;;;;;2.60;2.50;;;;;;;14.72;100.00;63521.53;5047624;28;20244;-78
2022/10/02 03:19:52;;;;;;;3.03;2.92;;;;;;;14.72;100.00;63524.09;5048174;28;20256;-78
2022/10/02 03:22:25;;;;;;;2.85;2.75;;;;;;;14.75;100.00;63527.19;5047677;28;20230;-76
2022/10/02 03:25:00;;;;;;;3.40;3.28;;;;;;;14.75;100.00;63522.59;5048200;28;20221;-77
2022/10/02 03:27:34;;;;;;;3.28;3.17;;;;;;;14.78;100.00;63523.16;5048505;28;20213;-77
2022/10/02 03:30:05;;;;;;;3.85;3.55;;;;;;;14.79;100.00;63533.91;5047013;28;20197;-77
2022/10/02 03:32:33;;;;;;;3.20;3.00;;;;;;;14.74;100.00;63516.41;5052464;28;20217;-78
2022/10/02 03:35:01;;;;;;;3.17;3.08;;;;;;;14.73;100.00;63525.66;5048806;28;20216;-79
2022/10/02 03:37:29;;;;;;;2.67;2.47;;;;;;;14.65;100.00;63514.75;5047882;28;20236;-78
2022/10/02 03:39:58;;;;;;;2.75;2.65;;;;;;;14.58;100.00;63506.97;5043375;28;20213;-78
2022/10/02 03:42:27;;;;;;;3.00;2.80;;;;;;;14.64;100.00;63511.16;5048176;28;20263;-79
2022/10/02 03:44:54;;;;;;;3.00;2.90;;;;;;;14.61;100.00;63505.50;5048921;28;20503;-78
2022/10/02 03:47:22;;;;;;;3.10;2.60;;;;;;;14.56;100.00;63502.88;5046686;28;20218;-77
2022/10/02 03:49:49;;;;;;;3.42;3.22;;;;;;;14.58;100.00;63507.47;5050076;28;20270;-79
2022/10/02 03:52:17;;;;;;;3.17;2.90;;;;;;;14.59;100.00;63505.97;5049100;28;20233;-79
2022/10/02 03:54:45;;;;;;;3.25;3.00;;;;;;;14.59;100.00;63508.00;5046971;28;20216;-79
2022/10/02 03:57:18;;;;;;;6.00;2.63;;;;;;;14.63;100.00;63515.25;5047064;28;20234;-77
2022/10/02 03:59:51;;;;;;;2.95;2.85;;;;;;;14.69;100.00;63520.97;5050910;28;20417;-76
2022/10/02 04:02:27;;;;;;;2.90;2.80;;;;;;;14.63;100.00;63509.59;5046066;28;20218;-77
2022/10/02 04:04:58;;;;;;;2.63;2.42;;;;;;;14.64;100.00;63508.06;5049319;28;20217;-79
2022/10/02 04:07:30;;;;;;;3.42;3.22;;;;;;;14.58;100.00;63501.84;5047504;28;20228;-79
2022/10/02 04:10:14;;;;;;;2.83;2.67;;;;;;;14.66;100.00;63510.69;5048780;28;20191;-79
2022/10/02 04:12:45;;;;;;;2.60;2.50;;;;;;;14.56;100.00;63499.78;5049629;28;20240;-79
2022/10/02 04:15:19;;;;;;;2.67;2.58;;;;;;;14.58;100.00;63504.91;5037132;28;20261;-79
2022/10/02 04:17:51;;;;;;;2.95;2.85;;;;;;;14.48;100.00;63491.97;5030795;28;20226;-79
2022/10/02 04:20:23;;;;;;;3.08;2.78;;;;;;;14.48;100.00;63491.97;5027229;28;20218;-78
2022/10/02 04:22:54;;;;;;;3.03;2.92;;;;;;;14.46;100.00;63489.91;5032656;28;20218;-80
2022/10/02 04:25:25;;;;;;;2.80;2.70;;;;;;;14.44;100.00;63492.44;5040894;28;20198;-80
2022/10/02 04:27:56;;;;;;;3.03;2.85;;;;;;;14.45;100.00;63491.44;5048169;28;20233;-79
2022/10/02 04:30:24;;;;;;;3.45;3.25;;;;;;;14.54;100.00;63498.22;5050319;28;20194;-79
2022/10/02 04:32:53;;;;;;;3.10;2.90;;;;;;;14.55;100.00;63499.25;5046322;28;20217;-79
2022/10/02 04:35:29;;;;;;;3.53;3.20;;;;;;;14.55;100.00;63506.41;5050387;28;20268;-80
2022/10/02 04:38:18;;;;;;;3.42;3.22;;;;;;;14.57;100.00;63501.31;5048112;28;20213;-78
2022/10/02 04:40:59;;;;;;;2.85;2.75;;;;;;;14.55;100.00;63498.72;5030086;28;20531;-80
2022/10/02 04:43:42;;;;;;;3.88;3.55;;;;;;;14.60;100.00;63506.50;5047928;28;20221;-79
2022/10/02 04:46:24;;;;;;;3.20;3.00;;;;;;;14.58;100.00;63504.91;5049644;28;20236;-80
2022/10/02 04:49:15;;;;;;;3.30;3.20;;;;;;;14.58;100.00;63510.03;5049416;28;20249;-80
2022/10/02 04:51:59;;;;;;;5.75;2.85;;;;;;;14.50;100.00;63496.09;5047707;28;20212;-81
2022/10/02 04:54:46;;;;;;;2.92;2.83;;;;;;;14.40;100.00;63486.25;5047625;28;20198;-80
2022/10/02 04:57:38;;;;;;;3.05;2.95;;;;;;;14.42;100.00;63487.78;5047783;28;20217;-81
2022/10/02 05:00:10;;;;;;;3.42;2.90;;;;;;;14.34;100.00;63479.50;5042844;28;20206;-80
2022/10/02 05:02:54;;;;;;;2.60;2.50;;;;;;;14.38;100.00;63486.72;5034393;28;20316;-80
2022/10/02 05:05:38;;;;;;;2.88;2.75;;;;;;;14.37;100.00;63485.16;5035581;28;20507;-81
2022/10/02 05:08:27;;;;;;;3.13;2.70;;;;;;;14.38;100.00;63484.16;5040041;28;20538;-80
2022/10/02 05:11:10;;;;;;;4.60;3.08;;;;;;;14.39;100.00;63489.81;5043740;28;20206;-81
2022/10/02 05:14:01;;;;;;;3.20;3.10;;;;;;;14.29;100.00;63474.81;5042801;28;20214;-82
2022/10/02 05:16:46;;;;;;;2.80;2.60;;;;;;;14.29;100.00;63469.69;5045897;28;20206;-81
2022/10/02 05:19:29;;;;;;;2.97;2.88;;;;;;;14.31;100.00;63476.88;5047557;28;20194;-80
2022/10/02 05:22:23;;;;;;;3.22;2.95;;;;;;;14.38;100.00;63478.50;5042879;28;20226;-79
2022/10/02 05:25:07;;;;;;;2.83;2.72;;;;;;;14.42;100.00;63485.75;5042216;28;20217;-80
2022/10/02 05:27:57;;;;;;;3.72;2.83;;;;;;;14.50;100.00;63493.53;5046719;28;20279;-79
2022/10/02 05:30:24;;;;;;;2.30;2.20;;;;;;;14.55;100.00;63503.84;5047952;28;20392;-81
2022/10/02 05:33:21;;;;;;;2.42;2.33;;;;;;;14.58;100.00;63501.84;5047561;28;20264;-79
2022/10/02 05:36:08;;;;;;;1.83;1.77;;;;;;;14.51;100.00;63492.53;5047966;28;20197;-79
2022/10/02 05:39:01;;;;;;;2.45;2.35;;;;;;;14.56;100.00;63505.44;5040204;28;20222;-81
2022/10/02 05:41:39;;;;;;;2.15;2.08;;;;;;;14.71;100.00;63518.44;5035845;28;20274;-79
2022/10/02 05:44:12;;;;;;;2.42;2.33;;;;;;;14.86;100.00;63530.94;5033263;28;20194;-79
2022/10/02 05:46:44;;;;;;;2.08;2.05;;;;;;;14.95;100.00;63540.28;5038211;28;20209;-78
2022/10/02 05:49:16;;;;;;;2.10;2.10;;;;;;;14.95;97.93;63542.84;5034427;28;20224;-79
2022/10/02 05:51:54;;;;;;;2.60;2.40;;;;;;;15.02;97.87;63550.66;5039517;28;20515;-81
2022/10/02 05:54:36;;;;;;;2.67;2.58;;;;;;;15.01;95.94;63547.03;5036897;28;20453;-80
2022/10/02 05:57:13;;;;;;;2.38;2.22;;;;;;;15.03;95.08;63551.16;5038167;28;20264;-80
2022/10/02 05:59:47;;;;;;;2.63;2.42;;;;;;;14.91;95.05;63538.69;5035597;28;20202;-82
2022/10/02 06:02:24;;;;;;;2.78;2.08;;;;;;;14.95;94.61;63540.81;5033223;28;20252;-80
2022/10/02 06:04:57;;;;;;;2.40;2.30;;;;;;;14.88;95.92;63536.09;5037627;28;20198;-80
2022/10/02 06:07:28;;;;;;;2.17;2.08;;;;;;;14.88;94.28;63538.13;5045423;28;20241;-80
2022/10/02 06:10:01;;;;;;;2.30;2.20;;;;;;;14.85;93.91;63537.59;5042016;28;20457;-82
2022/10/02 06:12:35;;;;;;;3.97;2.92;;;;;;;14.91;93.53;63539.22;5037673;28;20214;-82
2022/10/02 06:15:08;;;;;;;2.50;2.38;;;;;;;14.95;93.56;63542.84;5036526;28;20187;-83
2022/10/02 06:17:41;;;;;;;2.75;2.65;;;;;;;14.92;94.27;63545.38;5037721;28;20285;-82
2022/10/02 06:20:17;;;;;;;2.53;2.42;;;;;;;14.75;94.94;63522.59;5038033;28;20213;-84
2022/10/02 06:22:50;;;;;;;2.78;2.67;;;;;;;14.80;93.26;63530.34;5047595;28;20233;-83
2022/10/02 06:25:24;;;;;;;2.60;2.50;;;;;;;15.10;92.64;63555.84;5049949;28;20197;-81
2022/10/02 06:27:57;;;;;;;1.83;1.83;;;;;;;15.06;92.93;63549.16;5051084;28;20221;-83
2022/10/02 06:30:24;;;;;;;2.60;2.50;;;;;;;15.17;92.79;63567.75;5038871;28;20273;-85
2022/10/02 06:32:55;;;;;;;3.45;2.80;;;;;;;15.30;91.61;63581.78;5037216;28;20262;-82
2022/10/02 06:35:41;;;;;;;2.60;2.50;;;;;;;15.42;89.26;63586.06;5037940;28;20407;-80
2022/10/02 06:38:23;;;;;;;2.42;2.22;;;;;;;15.42;89.46;63596.84;5032611;28;20407;-79
2022/10/02 06:40:58;;;;;;;2.53;2.35;;;;;;;15.36;90.73;63584.94;5052324;28;20196;-81
2022/10/02 06:43:49;;;;;;;2.22;2.13;;;;;;;15.32;89.46;63583.34;5048750;28;20305;-81
2022/10/02 06:46:26;;;;;;;2.70;2.60;;;;;;;15.38;90.75;63589.56;5054965;28;20407;-84
2022/10/02 06:48:59;;;;;;;2.10;2.08;;;;;;;15.30;88.37;63584.34;5046571;28;20260;-80
2022/10/02 06:51:37;;;;;;;2.70;2.50;;;;;;;15.36;87.38;63590.59;5049267;28;20229;-82
2022/10/02 06:54:29;;;;;;;1.95;1.85;;;;;;;15.40;84.06;63586.53;5051637;28;20193;-80
2022/10/02 06:57:14;;;;;;;2.78;2.03;;;;;;;15.54;84.02;63601.63;5052245;28;20313;-85
2022/10/02 06:59:59;;;;;;;3.42;1.80;;;;;;;15.55;84.59;63604.72;5052661;28;20198;-86
2022/10/02 07:02:43;;;;;;;1.73;1.73;;;;;;;15.57;83.20;63606.78;5050448;28;20229;-82
2022/10/02 07:05:31;;;;;;;1.90;1.80;;;;;;;15.73;81.19;63623.94;5050504;28;20197;-80
2022/10/02 07:08:05;;;;;;;1.70;1.60;;;;;;;15.77;79.34;63627.59;5051265;28;20226;-79
2022/10/02 07:10:42;;;;;;;1.98;1.88;;;;;;;15.69;82.00;63622.34;5041114;28;20248;-80
2022/10/02 07:13:25;;;;;;;1.73;1.63;;;;;;;15.93;78.27;63649.34;5049105;28;20456;-81
2022/10/02 07:16:16;;;;;;;7.65;1.88;;;;;;;15.92;77.71;63640.59;5039282;28;20220;-80
2022/10/02 07:19:00;;;;;;;1.88;1.77;;;;;;;15.95;80.48;63646.81;5045747;28;20220;-83
2022/10/02 07:21:38;;;;;;;1.20;1.17;;;;;;;15.88;76.66;63639.00;5051417;28;20201;-82
2022/10/02 07:24:19;;;;;;;1.60;1.45;;;;;;;15.93;74.97;63642.16;5049706;28;20193;-80
2022/10/02 07:26:54;;;;;;;2.35;1.30;;;;;;;15.86;69.95;63636.91;5047495;28;20206;-82
2022/10/02 07:29:37;;;;;;;1.45;1.25;;;;;;;15.68;73.24;63618.75;5033844;28;20218;-81
2022/10/02 07:32:37;;;;;;;1.52;1.52;;;;;;;15.85;74.12;63633.84;5041251;28;20213;-78
2022/10/02 07:35:20;;;;;;;2.25;1.63;;;;;;;15.84;73.96;63632.78;5044770;28;20202;-81
2022/10/02 07:37:56;;;;;;;1.33;1.33;;;;;;;15.84;74.35;63634.88;5038976;28;20248;-82
2022/10/02 07:40:35;;;;;;;1.55;1.55;;;;;;;15.86;74.51;63636.91;5051442;28;20209;-81
2022/10/02 07:43:16;;;;;;;1.30;1.30;;;;;;;15.84;76.32;63632.28;5050707;28;20225;-81
2022/10/02 07:45:49;;;;;;;1.65;1.63;;;;;;;15.84;77.32;63632.28;5043876;28;20202;-80
2022/10/02 07:48:37;;;;;;;1.85;1.75;;;;;;;15.73;77.11;63623.94;5042098;28;20217;-81
2022/10/02 07:54:15;;;;;;;1.60;1.50;;;;;;;15.90;75.65;63643.66;5035323;28;20186;-79
2022/10/02 07:56:46;;;;;;;2.10;1.20;;;;;;;15.97;71.84;63648.91;5039866;28;20198;-80
2022/10/02 07:59:16;;;;;;;1.60;1.52;;;;;;;16.10;72.67;63664.97;5047016;28;20244;-80
2022/10/02 08:01:49;;;;;;;1.42;1.40;;;;;;;16.18;68.59;63672.78;5050230;28;20268;-80
2022/10/02 08:04:18;;;;;;;3.10;1.30;;;;;;;16.15;68.69;63661.97;5050632;28;20201;-81
2022/10/02 08:06:46;;;;;;;4.15;1.38;;;;;;;16.11;69.03;63663.47;5049912;28;20201;-80
2022/10/02 08:09:19;;;;;;;1.67;1.15;;;;;;;16.09;68.75;63658.81;5049321;28;20301;-79
2022/10/02 08:11:53;;;;;;;9.93;1.48;;;;;;;16.09;69.23;63658.81;5040903;28;20202;-83
2022/10/02 08:14:25;;;;;;;1.63;1.52;;;;;;;16.14;67.81;63664.00;5046755;28;20198;-80
2022/10/02 08:16:56;;;;;;;1.50;1.40;;;;;;;16.04;71.34;63655.66;5049868;28;20204;-80
2022/10/02 08:19:28;;;;;;;1.42;1.42;;;;;;;16.07;71.96;63656.19;5049326;28;20226;-80
2022/10/02 08:22:01;;;;;;;1.20;1.20;;;;;;;16.02;70.84;63656.13;5050705;28;20407;-80
2022/10/02 08:24:32;;;;;;;1.10;1.10;;;;;;;16.05;71.53;63661.81;5050318;28;20201;-80
2022/10/02 08:27:03;;;;;;;1.35;1.35;;;;;;;16.03;70.68;63655.13;5051358;28;20210;-80
2022/10/02 08:29:39;;;;;;;1.40;1.23;;;;;;;16.15;71.02;63667.09;5049627;28;20240;-79
2022/10/02 08:32:11;;;;;;;2.92;1.40;;;;;;;16.00;71.01;63657.16;5049576;28;20237;-80
2022/10/02 08:34:39;;;;;;;1.88;1.77;;;;;;;15.96;71.21;63650.41;5051400;28;20194;-80
2022/10/02 08:37:23;;;;;;;1.40;1.30;;;;;;;16.03;72.05;63652.56;5050337;28;20214;-81
2022/10/02 08:40:36;;;;;;;2.10;1.52;;;;;;;15.95;72.28;63643.72;5050677;28;20205;-80
2022/10/02 08:43:47;;;;;;;1.20;1.20;;;;;;;16.01;73.43;63653.03;5047395;28;20232;-80
2022/10/02 08:46:57;;;;;;;1.40;1.40;;;;;;;16.53;73.34;63704.06;5049688;28;20224;-80
2022/10/02 08:49:51;;;;;;;1.40;1.25;;;;;;;16.63;71.69;63714.47;5049873;28;20229;-80
2022/10/02 08:52:39;;;;;;;1.52;1.45;;;;;;;16.69;71.43;63720.72;5045769;28;20213;-81
2022/10/02 08:55:38;;;;;;;1.85;1.20;;;;;;;16.66;66.10;63717.06;5047454;28;20198;-82
2022/10/02 08:58:38;;;;;;;3.17;1.45;;;;;;;16.89;67.99;63746.69;4999153;28;20222;-80
2022/10/02 09:01:20;;;;;;;1.42;1.42;;;;;;;16.52;70.38;63705.59;5048540;28;20205;-81
2022/10/02 09:04:22;;;;;;;1.60;1.50;;;;;;;16.69;70.12;63718.13;5052816;28;20213;-80
2022/10/02 09:07:26;;;;;;;1.52;1.52;;;;;;;17.02;64.75;63755.06;5050515;28;20204;-81
2022/10/02 09:10:30;;;;;;;1.33;1.33;;;;;;;16.93;65.66;63750.31;5049085;28;20229;-82
2022/10/02 09:13:22;;;;;;;1.15;1.15;;;;;;;16.97;67.77;63751.91;5049571;28;20239;-80
2022/10/02 09:16:01;;;;;;;1.85;1.20;;;;;;;16.91;62.49;63745.66;5030225;28;20198;-80
2022/10/02 09:18:53;;;;;;;2.97;1.70;;;;;;;16.62;66.71;63715.50;5029879;28;20229;-82
2022/10/02 09:21:50;;;;;;;1.20;1.20;;;;;;;16.50;66.92;63700.44;5030228;28;20214;-80
2022/10/02 09:24:58;;;;;;;1.75;1.58;;;;;;;16.69;64.67;63720.72;5047436;28;20201;-83
2022/10/02 09:28:06;;;;;;;1.38;1.38;;;;;;;16.26;65.46;63678.53;5050779;28;20244;-80
2022/10/02 09:31:02;;;;;;;1.90;1.80;;;;;;;16.28;67.14;63680.59;5013596;28;20237;-79
2022/10/02 09:34:05;;;;;;;2.08;1.98;;;;;;;16.58;68.91;63711.84;5027452;28;20296;-81
2022/10/02 09:37:18;;;;;;;2.85;1.52;;;;;;;16.72;67.28;63726.41;5030854;28;20204;-83
2022/10/02 09:40:25;;;;;;;1.75;1.70;;;;;;;16.59;66.06;63707.75;4952962;29;20587;-82
2022/10/02 09:43:25;;;;;;;1.80;1.70;;;;;;;16.84;66.03;63736.31;5030482;28;20214;-81
2022/10/02 09:46:22;;;;;;;2.05;1.95;;;;;;;16.92;62.94;63747.22;5004673;28;20205;-79
2022/10/02 09:49:25;;;;;;;1.30;1.30;;;;;;;16.99;62.37;63759.13;5050227;28;20285;-83
2022/10/02 09:52:18;;;;;;;1.60;1.60;;;;;;;17.11;62.71;63767.00;5044537;28;20226;-81
2022/10/02 09:55:19;;;;;;;1.70;1.67;;;;;;;17.13;63.02;63769.09;5050553;28;20220;-80
2022/10/02 09:58:36;;;;;;;2.08;1.95;;;;;;;17.30;63.76;63781.09;5049701;28;20244;-82
2022/10/02 10:01:45;;;;;;;1.67;1.67;;;;;;;17.33;60.90;63787.31;5045194;28;20194;-79
2022/10/02 10:04:51;;;;;;;2.40;1.63;;;;;;;17.19;62.53;63772.22;5026862;28;20379;-80
2022/10/02 10:07:46;;;;;;;1.27;1.27;;;;;;;16.98;58.83;63752.94;5015202;28;20220;-83
2022/10/02 10:10:45;;;;;;;1.67;1.58;;;;;;;17.05;59.00;63758.19;5045790;28;20263;-82
2022/10/02 10:16:56;;;;;;;1.35;1.35;;;;;;;17.36;60.82;63792.50;4971394;26;20205;-84
2022/10/02 10:19:58;;;;;;;2.00;1.90;;;;;;;17.45;60.11;63804.44;5027541;28;20194;-81
2022/10/02 10:22:59;;;;;;;1.60;1.60;;;;;;;17.42;57.51;63798.75;5029520;28;20435;-78
2022/10/02 10:26:03;;;;;;;1.60;1.60;;;;;;;17.24;62.25;63777.44;5023600;28;20202;-81
2022/10/02 10:29:02;;;;;;;1.65;1.60;;;;;;;17.43;58.95;63807.00;5027235;28;20221;-80
2022/10/02 10:32:02;;;;;;;2.40;1.27;;;;;;;17.38;57.29;63794.06;5017851;28;20264;-81
2022/10/02 10:35:16;;;;;;;1.20;1.10;;;;;;;17.52;57.35;63806.59;5018699;28;20202;-80
2022/10/02 10:40:53;;;;;;;1.67;1.30;;;;;;;17.31;59.53;63787.28;5017713;28;20201;-83
2022/10/02 10:43:51;;;;;;;1.60;1.48;;;;;;;17.52;57.29;63804.03;5024611;28;20237;-84
2022/10/02 10:46:35;;;;;;;1.40;1.30;;;;;;;17.62;57.55;63817.00;5025302;28;20246;-83
2022/10/02 10:49:34;;;;;;;0.93;0.93;;;;;;;17.66;56.12;63823.22;5020633;28;20229;-80
2022/10/02 10:52:14;;;;;;;1.58;1.33;;;;;;;17.84;56.39;63841.97;5024198;28;20286;-85
2022/10/02 10:54:54;;;;;;;1.25;1.25;;;;;;;18.06;56.21;63867.47;5024387;28;20209;-80
2022/10/02 10:57:39;;;;;;;1.17;1.13;;;;;;;17.93;54.41;63854.44;5018119;28;20285;-81
2022/10/02 11:00:17;;;;;;;1.27;1.27;;;;;;;18.09;55.75;63868.53;5025733;28;20227;-81
2022/10/02 11:03:30;;;;;;;1.08;1.08;;;;;;;17.75;53.10;63830.56;5020217;28;20224;-81
2022/10/02 11:06:35;;;;;;;1.40;1.30;;;;;;;17.72;55.56;63832.59;5019330;28;20422;-81
2022/10/02 11:09:37;;;;;;;1.13;1.10;;;;;;;17.75;54.12;63835.72;5021627;28;20200;-83
2022/10/02 11:12:23;;;;;;;1.13;1.13;;;;;;;17.93;53.59;63851.88;5013977;28;20217;-81
2022/10/02 11:15:04;;;;;;;1.30;1.30;;;;;;;17.94;53.62;63850.34;5023157;28;20198;-83
2022/10/02 11:17:55;;;;;;;1.58;1.45;;;;;;;17.90;54.13;63848.22;5024515;28;20245;-83
2022/10/02 11:20:46;;;;;;;0.90;0.90;;;;;;;17.78;55.00;63840.88;5019340;28;20491;-81
2022/10/02 11:23:38;;;;;;;0.80;0.80;;;;;;;17.82;51.40;63839.91;5021113;28;20210;-81
2022/10/02 11:26:34;;;;;;;0.88;0.88;;;;;;;18.01;51.26;63857.13;5025192;28;20256;-80
2022/10/02 11:29:37;;;;;;;1.20;1.10;;;;;;;17.95;50.74;63856.53;5025803;28;20187;-83
2022/10/02 11:32:34;;;;;;;1.10;1.10;;;;;;;17.84;52.63;63837.34;5025307;28;20218;-81
2022/10/02 11:35:22;;;;;;;1.20;1.20;;;;;;;17.88;52.90;63851.28;5021936;28;20274;-82
2022/10/02 11:38:09;;;;;;;2.25;0.90;;;;;;;17.91;53.60;63846.69;5024220;28;20214;-81
2022/10/02 11:41:02;;;;;;;1.05;1.05;;;;;;;17.97;53.83;63858.09;5027588;28;20202;-80
2022/10/02 11:44:05;;;;;;;1.17;1.17;;;;;;;17.90;53.19;63853.91;5026447;28;20219;-82
2022/10/02 11:46:57;;;;;;;0.98;0.93;;;;;;;17.86;54.02;63841.50;5024948;28;20205;-80
2022/10/02 11:50:00;;;;;;;1.00;1.00;;;;;;;17.79;54.36;63837.28;5023654;28;20230;-83
2022/10/02 11:52:59;;;;;;;1.13;1.13;;;;;;;17.99;54.87;63860.19;5025248;28;20222;-79
2022/10/02 11:55:44;;;;;;;4.10;1.23;;;;;;;18.15;51.65;63876.84;5025396;28;20260;-84
2022/10/02 11:58:22;;;;;;;0.73;0.73;;;;;;;17.97;52.02;63856.03;5024516;28;20410;-82
2022/10/02 12:01:23;;;;;;;1.08;1.08;;;;;;;18.00;52.66;63859.16;5023341;28;20224;-83
2022/10/02 12:04:04;;;;;;;1.65;1.00;;;;;;;17.94;53.28;63857.56;5016653;28;20222;-80
2022/10/02 12:06:51;;;;;;;0.93;0.85;;;;;;;17.93;52.84;63851.38;5024319;28;20244;-81
2022/10/02 12:09:28;;;;;;;1.00;1.00;;;;;;;17.94;53.06;63847.78;5021744;28;20269;-82
2022/10/02 12:12:08;;;;;;;1.08;1.00;;;;;;;17.91;52.55;63849.28;5026896;28;20531;-81
2022/10/02 12:14:44;;;;;;;6.22;1.10;;;;;;;17.84;52.50;63845.09;5021788;28;20218;-80
2022/10/02 12:17:39;;;;;;;1.00;1.00;;;;;;;17.60;53.12;63820.06;5028001;28;20291;-80
2022/10/02 12:28:58;;;;;;;1.10;1.10;;;;;;;17.78;53.87;63835.72;5030194;28;20241;-82
2022/10/02 12:31:33;;;;;;;1.13;1.13;;;;;;;17.67;53.78;63822.22;5029284;28;20248;-80
2022/10/02 12:34:08;;;;;;;2.35;1.20;;;;;;;17.86;54.30;63841.50;5015387;28;20202;-79
2022/10/02 12:36:55;;;;;;;1.20;1.20;;;;;;;17.95;53.86;63851.38;5011104;28;20195;-80
2022/10/02 12:39:37;;;;;;;1.75;1.30;;;;;;;17.91;53.77;63849.78;5014732;28;20202;-80
2022/10/02 12:42:17;;;;;;;1.30;1.30;;;;;;;17.71;53.84;63825.84;5027976;28;20284;-81
2022/10/02 12:45:09;;;;;;;0.90;0.90;;;;;;;17.80;53.24;63835.25;5028732;28;20194;-81
2022/10/02 12:48:05;;;;;;;1.20;1.20;;;;;;;18.02;53.42;63861.25;5023103;28;20260;-79
2022/10/02 12:50:50;;;;;;;1.55;1.52;;;;;;;18.19;52.93;63876.38;5022241;28;20546;-78
2022/10/02 12:54:03;;;;;;;1.42;1.42;;;;;;;18.23;52.06;63885.72;5015917;28;20218;-77